Startpagina
METAR-TAF:

METAR-TAF

Vliegvelden :

Saint-Nazaire, Frankrijk

breedte: 47-19N, lengte: 002-10W, hoogte: 3 m

Actueel weer

Dit bericht is 30 minuten geleden gemaakt, om 13:30 UTC
Wind 8 kt uit het oostzuidoosten, variërend tussen het oosten en het zuidoosten
Temperatuur 25°C
Vochtigheid 39%
Druk 1019 hPa
Zicht: 2400 m

METAR: LFRZ 101330Z AUTO 11008KT 080V140 6000 2400 NSC 25/10 Q1019

Tijdstip: 16:00 (14:00 UTC)


TAF: ontbreekt

Waarnemingen en weersverwachtingen van meer dan 4000 vliegvelden (METAR en TAF).

De beschikbare stations zijn de gele en rode punten op de kaart.

Ga met uw muis naar het station om de naam te zien.

Klik dan om waarnemingen en weersverwachtingen te zien.

kaart wijzigen: klik op de groene knoppen met een zwart kruis om in te zoomen, op de groene knop met een streepje om uit te zoomen of op de groene pijlen voor aangrenzende kaarten.


METAR-TAF: